createdAt,value
2016-09-30T00:00:28.230Z,0.00
2016-09-30T00:01:28.744Z,0.00
2016-09-30T00:02:29.405Z,0.00
2016-09-30T00:03:29.790Z,0.00
2016-09-30T00:04:30.282Z,0.00
2016-09-30T00:05:30.796Z,0.00
2016-09-30T00:06:31.309Z,0.00
2016-09-30T00:07:31.817Z,0.00
2016-09-30T00:08:32.337Z,0.00
2016-09-30T00:09:32.855Z,0.00
2016-09-30T00:10:33.373Z,0.00
2016-09-30T00:11:33.885Z,0.00
2016-09-30T00:12:34.404Z,0.00
2016-09-30T00:13:36.431Z,0.00
2016-09-30T00:14:35.417Z,0.00
2016-09-30T00:15:35.929Z,0.00
2016-09-30T00:16:36.440Z,0.00
2016-09-30T00:17:36.951Z,0.00
2016-09-30T00:18:37.461Z,0.00
2016-09-30T00:19:37.972Z,0.00
2016-09-30T00:20:38.486Z,0.00
2016-09-30T00:21:38.994Z,0.00
2016-09-30T00:22:39.542Z,0.00
2016-09-30T00:23:40.023Z,0.00
2016-09-30T00:24:40.529Z,0.00
2016-09-30T00:25:41.045Z,0.00
2016-09-30T00:26:41.562Z,0.00
2016-09-30T00:27:42.079Z,0.00
2016-09-30T00:28:42.585Z,0.00
2016-09-30T00:29:43.102Z,0.00
2016-09-30T00:30:43.760Z,0.00
2016-09-30T00:31:44.126Z,0.00
2016-09-30T00:32:44.640Z,0.00
2016-09-30T00:33:45.151Z,0.00
2016-09-30T00:34:45.659Z,0.00
2016-09-30T00:35:46.175Z,0.00
2016-09-30T00:36:46.681Z,0.00
2016-09-30T00:37:47.188Z,0.00
2016-09-30T00:38:47.706Z,0.00
2016-09-30T00:39:48.360Z,0.00
2016-09-30T00:40:48.744Z,0.00
2016-09-30T00:41:49.385Z,0.00
2016-09-30T00:42:49.748Z,0.00
2016-09-30T00:43:50.256Z,0.00
2016-09-30T00:44:50.780Z,0.00
2016-09-30T00:45:51.316Z,0.00
2016-09-30T00:46:51.805Z,0.00
2016-09-30T00:47:52.322Z,0.00
2016-09-30T00:48:52.836Z,0.00
2016-09-30T00:49:53.352Z,0.00
2016-09-30T00:50:53.860Z,0.00
2016-09-30T00:51:54.371Z,0.00
2016-09-30T00:52:54.891Z,0.00
2016-09-30T00:53:55.392Z,0.00
2016-09-30T00:54:56.052Z,0.00
2016-09-30T00:55:56.411Z,0.00
2016-09-30T00:56:56.924Z,0.00
2016-09-30T00:57:57.438Z,0.00
2016-09-30T00:58:57.949Z,0.00
2016-09-30T00:59:58.466Z,0.00
2016-09-30T01:00:58.972Z,0.00
2016-09-30T01:01:59.478Z,0.00
2016-09-30T01:02:59.990Z,0.00
2016-09-30T01:04:00.503Z,0.00
2016-09-30T01:05:01.012Z,0.00
2016-09-30T01:06:01.525Z,0.00
2016-09-30T01:07:02.036Z,0.00
2016-09-30T01:08:02.585Z,0.00
2016-09-30T01:09:03.077Z,0.00
2016-09-30T01:10:03.568Z,0.00
2016-09-30T01:11:04.082Z,0.00
2016-09-30T01:12:04.610Z,0.00
2016-09-30T01:13:05.108Z,0.00
2016-09-30T01:14:05.624Z,0.00
2016-09-30T01:15:06.130Z,0.00
2016-09-30T01:16:06.646Z,0.00
2016-09-30T01:17:07.315Z,0.00
2016-09-30T01:18:07.670Z,0.00
2016-09-30T01:19:08.184Z,0.00
2016-09-30T01:20:08.688Z,0.00
2016-09-30T01:21:09.201Z,0.00
2016-09-30T01:22:09.711Z,0.00
2016-09-30T01:23:10.377Z,0.00
2016-09-30T01:24:10.767Z,0.00
2016-09-30T01:25:11.284Z,0.00
2016-09-30T01:26:11.776Z,0.00
2016-09-30T01:27:12.343Z,0.00
2016-09-30T01:28:12.957Z,0.00
2016-09-30T01:29:13.348Z,0.00
2016-09-30T01:30:13.831Z,0.00
2016-09-30T01:31:15.394Z,0.00
2016-09-30T01:32:14.856Z,0.00
2016-09-30T01:33:15.390Z,0.00
2016-09-30T01:34:16.029Z,0.00
2016-09-30T01:35:16.388Z,0.00
2016-09-30T01:36:16.901Z,0.00
2016-09-30T01:37:17.409Z,0.00
2016-09-30T01:38:17.926Z,0.00
2016-09-30T01:39:18.434Z,0.00
2016-09-30T01:40:18.947Z,0.00
2016-09-30T01:41:19.463Z,0.00
2016-09-30T01:42:19.975Z,0.00
2016-09-30T01:43:20.485Z,0.00
2016-09-30T01:44:21.009Z,0.00
2016-09-30T01:45:21.661Z,0.00
2016-09-30T01:46:22.176Z,0.00
2016-09-30T01:47:22.533Z,0.00
2016-09-30T01:48:23.051Z,0.00
2016-09-30T01:49:24.454Z,0.00
2016-09-30T01:50:24.067Z,0.00
2016-09-30T01:51:24.581Z,0.00
2016-09-30T01:52:25.100Z,0.00
2016-09-30T01:53:25.768Z,0.00
2016-09-30T01:54:26.123Z,0.00
2016-09-30T01:55:26.637Z,0.00
2016-09-30T01:56:27.152Z,0.00
2016-09-30T01:57:27.673Z,0.00
2016-09-30T01:58:28.171Z,0.00
2016-09-30T01:59:28.680Z,0.00
2016-09-30T02:00:29.198Z,0.00
2016-09-30T02:01:29.715Z,0.00
2016-09-30T02:02:30.230Z,0.00
2016-09-30T02:03:30.753Z,0.00
2016-09-30T02:04:31.402Z,0.00
2016-09-30T02:05:31.760Z,0.00
2016-09-30T02:06:32.273Z,0.00
2016-09-30T02:07:32.784Z,0.00
2016-09-30T02:08:33.298Z,0.00
2016-09-30T02:09:33.818Z,0.00
2016-09-30T02:10:34.470Z,0.00
2016-09-30T02:11:34.861Z,0.00
2016-09-30T02:12:35.346Z,0.00
2016-09-30T02:13:35.855Z,0.00
2016-09-30T02:14:36.522Z,0.00
2016-09-30T02:15:36.888Z,0.00
2016-09-30T02:16:37.396Z,0.00
2016-09-30T02:17:37.935Z,0.00
2016-09-30T02:18:38.414Z,0.00
2016-09-30T02:19:39.677Z,0.00
2016-09-30T02:20:39.585Z,0.00
2016-09-30T02:21:39.950Z,0.00
2016-09-30T02:22:40.465Z,0.00
2016-09-30T02:23:40.976Z,0.00
2016-09-30T02:24:41.489Z,0.00
2016-09-30T02:25:41.997Z,0.00
2016-09-30T02:26:42.511Z,0.00
2016-09-30T02:27:43.018Z,0.00
2016-09-30T02:28:43.525Z,0.00
2016-09-30T02:29:44.193Z,0.00
2016-09-30T02:30:44.552Z,0.00
2016-09-30T02:31:45.210Z,0.00
2016-09-30T02:32:45.580Z,0.00
2016-09-30T02:33:46.090Z,0.00
2016-09-30T02:34:46.600Z,0.00
2016-09-30T02:35:47.122Z,0.00
2016-09-30T02:36:47.628Z,0.00
2016-09-30T02:37:48.141Z,0.00
2016-09-30T02:38:48.657Z,0.00
2016-09-30T02:39:49.177Z,0.00
2016-09-30T02:40:49.686Z,0.00
2016-09-30T02:41:50.201Z,0.00
2016-09-30T02:42:50.714Z,0.00
2016-09-30T02:43:51.220Z,0.00
2016-09-30T02:44:51.730Z,0.00
2016-09-30T02:45:52.244Z,0.00
2016-09-30T02:46:52.771Z,0.00
2016-09-30T02:47:53.425Z,0.00
2016-09-30T02:48:53.781Z,0.00
2016-09-30T02:49:57.298Z,0.00
2016-09-30T02:50:54.805Z,0.00
2016-09-30T02:51:55.321Z,0.00
2016-09-30T02:52:55.831Z,0.00
2016-09-30T02:53:56.341Z,0.00
2016-09-30T02:54:56.856Z,0.00
2016-09-30T02:55:57.371Z,0.00
2016-09-30T02:56:57.886Z,0.00
2016-09-30T02:57:58.393Z,0.00
2016-09-30T02:58:58.931Z,0.00
2016-09-30T02:59:59.411Z,0.00
2016-09-30T03:00:59.922Z,0.00
2016-09-30T03:02:00.431Z,0.00
2016-09-30T03:03:01.098Z,0.00
2016-09-30T03:04:01.457Z,0.00
2016-09-30T03:05:01.969Z,0.00
2016-09-30T03:06:02.509Z,0.00
2016-09-30T03:07:03.011Z,0.00
2016-09-30T03:08:03.671Z,0.00
2016-09-30T03:09:04.154Z,0.00
2016-09-30T03:10:04.540Z,0.00
2016-09-30T03:11:05.057Z,0.00
2016-09-30T03:12:05.716Z,0.00
2016-09-30T03:13:06.082Z,0.00
2016-09-30T03:14:06.598Z,0.00
2016-09-30T03:15:07.086Z,0.00
2016-09-30T03:16:07.630Z,0.00
2016-09-30T03:17:08.425Z,0.00
2016-09-30T03:18:08.813Z,0.00
2016-09-30T03:19:09.331Z,0.00
2016-09-30T03:20:09.963Z,0.00
2016-09-30T03:21:10.185Z,0.00
2016-09-30T03:22:10.693Z,0.00
2016-09-30T03:23:11.207Z,0.00
2016-09-30T03:24:11.716Z,0.00
2016-09-30T03:25:12.227Z,0.00
2016-09-30T03:26:12.732Z,0.00
2016-09-30T03:27:13.246Z,0.00
2016-09-30T03:28:13.756Z,0.00
2016-09-30T03:29:14.274Z,0.00
2016-09-30T03:30:14.782Z,0.00
2016-09-30T03:31:15.296Z,0.00
2016-09-30T03:32:15.805Z,0.00
2016-09-30T03:33:16.326Z,0.00
2016-09-30T03:34:16.978Z,0.00
2016-09-30T03:35:17.358Z,0.00
2016-09-30T03:36:18.001Z,0.00
2016-09-30T03:37:18.363Z,0.00
2016-09-30T03:38:18.886Z,0.00
2016-09-30T03:39:19.391Z,0.00
2016-09-30T03:40:19.901Z,0.00
2016-09-30T03:41:20.414Z,0.00
2016-09-30T03:42:20.925Z,0.00
2016-09-30T03:43:21.440Z,0.00
2016-09-30T03:44:22.103Z,0.00
2016-09-30T03:45:22.462Z,0.00
2016-09-30T03:46:22.971Z,0.00
2016-09-30T03:47:23.482Z,0.00
2016-09-30T03:48:23.992Z,0.00
2016-09-30T03:49:24.510Z,0.00
2016-09-30T03:50:25.015Z,0.00
2016-09-30T03:51:25.530Z,0.00
2016-09-30T03:52:26.041Z,0.00
2016-09-30T03:53:26.556Z,0.00
2016-09-30T03:54:27.070Z,0.00
2016-09-30T03:55:28.934Z,0.00
2016-09-30T03:56:28.097Z,0.00
2016-09-30T03:57:28.611Z,0.00
2016-09-30T03:58:29.272Z,0.00
2016-09-30T03:59:29.634Z,0.00
2016-09-30T04:00:30.152Z,0.00
2016-09-30T04:01:30.655Z,0.00
2016-09-30T04:02:31.179Z,0.00
2016-09-30T04:03:31.675Z,0.00
2016-09-30T04:04:32.339Z,0.00
2016-09-30T04:05:32.694Z,0.00
2016-09-30T04:06:33.208Z,0.00
2016-09-30T04:07:33.724Z,0.00
2016-09-30T04:08:34.223Z,0.00
2016-09-30T04:09:34.743Z,0.00
2016-09-30T04:10:35.248Z,0.00
2016-09-30T04:11:35.762Z,0.00
2016-09-30T04:12:36.422Z,0.00
2016-09-30T04:13:36.938Z,0.00
2016-09-30T04:14:37.298Z,0.00
2016-09-30T04:15:37.818Z,0.00
2016-09-30T04:16:38.327Z,0.00
2016-09-30T04:17:38.844Z,0.00
2016-09-30T04:18:39.356Z,0.00
2016-09-30T04:19:39.871Z,0.00
2016-09-30T04:20:40.373Z,0.00
2016-09-30T04:21:40.889Z,0.00
2016-09-30T04:22:41.392Z,0.00
2016-09-30T04:23:41.902Z,0.00
2016-09-30T04:24:42.415Z,0.00
2016-09-30T04:25:42.926Z,0.00
2016-09-30T04:26:43.436Z,0.00
2016-09-30T04:27:43.953Z,0.00
2016-09-30T04:28:44.616Z,0.00
2016-09-30T04:29:44.978Z,0.00
2016-09-30T04:30:45.494Z,0.00
2016-09-30T04:31:46.009Z,0.00
2016-09-30T04:32:46.517Z,0.00
2016-09-30T04:33:47.062Z,0.00
2016-09-30T04:34:47.539Z,0.00
2016-09-30T04:35:48.050Z,0.00
2016-09-30T04:36:48.559Z,0.00
2016-09-30T04:37:49.219Z,0.00
2016-09-30T04:38:49.582Z,0.00
2016-09-30T04:39:50.121Z,0.00
2016-09-30T04:40:50.610Z,0.00
2016-09-30T04:41:51.123Z,0.00
2016-09-30T04:42:51.638Z,0.00
2016-09-30T04:43:52.148Z,0.00
2016-09-30T04:44:52.657Z,0.00
2016-09-30T04:45:53.172Z,0.00
2016-09-30T04:46:53.686Z,0.00
2016-09-30T04:47:54.194Z,0.00
2016-09-30T04:48:54.853Z,0.00
2016-09-30T04:49:55.211Z,0.00
2016-09-30T04:50:55.720Z,0.00
2016-09-30T04:51:56.234Z,0.00
2016-09-30T04:52:56.743Z,0.00
2016-09-30T04:53:57.258Z,0.00
2016-09-30T04:54:57.776Z,0.00
2016-09-30T04:55:58.277Z,0.00
2016-09-30T04:56:58.940Z,0.00
2016-09-30T04:57:59.453Z,0.00
2016-09-30T04:58:59.818Z,0.00
2016-09-30T05:00:00.334Z,0.00
2016-09-30T05:01:00.839Z,0.00
2016-09-30T05:02:01.498Z,0.00
2016-09-30T05:03:01.863Z,0.00
2016-09-30T05:04:02.383Z,0.00
2016-09-30T05:05:02.895Z,0.00
2016-09-30T05:06:03.416Z,0.00
2016-09-30T05:07:04.074Z,0.00
2016-09-30T05:08:04.446Z,0.00
2016-09-30T05:09:04.957Z,0.00
2016-09-30T05:10:05.471Z,0.00
2016-09-30T05:11:06.135Z,0.00
2016-09-30T05:12:06.496Z,0.00
2016-09-30T05:13:07.017Z,0.00
2016-09-30T05:14:07.522Z,0.00
2016-09-30T05:15:08.184Z,0.00
2016-09-30T05:16:08.700Z,0.00
2016-09-30T05:17:09.061Z,0.00
2016-09-30T05:18:09.574Z,0.00
2016-09-30T05:19:10.084Z,0.00
2016-09-30T05:20:10.900Z,0.00
2016-09-30T05:21:11.107Z,0.00
2016-09-30T05:22:11.621Z,0.00
2016-09-30T05:23:12.133Z,0.00
2016-09-30T05:24:12.647Z,0.00
2016-09-30T05:25:13.310Z,0.00
2016-09-30T05:26:13.664Z,0.00
2016-09-30T05:27:14.183Z,0.00
2016-09-30T05:28:14.690Z,0.00
2016-09-30T05:29:15.201Z,0.00
2016-09-30T05:30:15.864Z,0.00
2016-09-30T05:31:16.227Z,0.00
2016-09-30T05:32:16.738Z,0.00
2016-09-30T05:33:17.400Z,0.00
2016-09-30T05:34:17.764Z,1.00
2016-09-30T05:35:18.289Z,1.00
2016-09-30T05:36:18.792Z,1.00
2016-09-30T05:37:19.311Z,2.00
2016-09-30T05:38:19.815Z,2.00
2016-09-30T05:39:20.334Z,2.00
2016-09-30T05:40:20.835Z,2.00
2016-09-30T05:41:22.845Z,2.00
2016-09-30T05:42:21.856Z,2.00
2016-09-30T05:43:22.518Z,2.00
2016-09-30T05:44:22.880Z,2.00
2016-09-30T05:45:23.549Z,2.00
2016-09-30T05:46:23.916Z,2.00
2016-09-30T05:47:24.428Z,2.00
2016-09-30T05:48:24.938Z,2.00
2016-09-30T05:49:25.450Z,2.00
2016-09-30T05:50:25.960Z,3.00
2016-09-30T05:51:26.479Z,3.00
2016-09-30T05:52:27.134Z,3.00
2016-09-30T05:53:27.494Z,3.00
2016-09-30T05:54:28.021Z,3.00
2016-09-30T05:55:28.516Z,3.00
2016-09-30T05:56:29.026Z,3.00
2016-09-30T05:57:29.541Z,3.00
2016-09-30T05:58:30.050Z,3.00
2016-09-30T05:59:30.557Z,3.00
2016-09-30T06:00:31.077Z,3.00
2016-09-30T06:01:31.740Z,3.00
2016-09-30T06:02:32.098Z,3.00
2016-09-30T06:03:32.632Z,4.00
2016-09-30T06:04:33.121Z,4.00
2016-09-30T06:05:33.628Z,4.00
2016-09-30T06:06:34.142Z,4.00
2016-09-30T06:07:34.654Z,4.00
2016-09-30T06:08:35.164Z,4.00
2016-09-30T06:09:35.828Z,4.00
2016-09-30T06:10:36.186Z,4.00
2016-09-30T06:11:36.847Z,4.00
2016-09-30T06:12:37.209Z,4.00
2016-09-30T06:13:37.722Z,4.00
2016-09-30T06:14:38.232Z,4.00
2016-09-30T06:15:38.768Z,4.00
2016-09-30T06:16:39.255Z,4.00
2016-09-30T06:17:39.773Z,4.00
2016-09-30T06:18:40.293Z,4.00
2016-09-30T06:19:40.817Z,4.00
2016-09-30T06:20:41.342Z,4.00
2016-09-30T06:21:41.864Z,4.00
2016-09-30T06:22:42.388Z,4.00
2016-09-30T06:23:42.908Z,4.00
2016-09-30T06:24:43.432Z,4.00
2016-09-30T06:25:43.954Z,4.00
2016-09-30T06:26:44.506Z,4.00
2016-09-30T06:27:44.998Z,5.00
2016-09-30T06:28:45.518Z,5.00
2016-09-30T06:29:46.032Z,6.00
2016-09-30T06:30:46.545Z,6.00
2016-09-30T06:31:47.059Z,6.00
2016-09-30T06:32:47.568Z,6.00
2016-09-30T06:33:48.079Z,7.00
2016-09-30T06:34:48.590Z,7.00
2016-09-30T06:35:49.268Z,7.00
2016-09-30T06:36:49.633Z,7.00
2016-09-30T06:37:50.124Z,8.00
2016-09-30T06:38:50.634Z,9.00
2016-09-30T06:39:51.146Z,10.00
2016-09-30T06:40:51.664Z,12.00
2016-09-30T06:41:52.180Z,12.00
2016-09-30T06:42:52.684Z,12.00
2016-09-30T06:43:53.194Z,12.00
2016-09-30T06:44:53.852Z,12.00
2016-09-30T06:45:54.219Z,13.00
2016-09-30T06:46:54.875Z,14.00
2016-09-30T06:47:55.239Z,14.00
2016-09-30T06:48:55.755Z,15.00
2016-09-30T06:49:56.265Z,15.00
2016-09-30T06:50:56.778Z,15.00
2016-09-30T06:51:57.291Z,15.00
2016-09-30T06:52:57.836Z,15.00
2016-09-30T06:53:58.317Z,15.00
2016-09-30T06:54:58.847Z,15.00
2016-09-30T06:55:59.352Z,16.00
2016-09-30T06:56:59.863Z,17.00
2016-09-30T06:58:00.380Z,17.00
2016-09-30T06:59:00.898Z,18.00
2016-09-30T07:00:01.414Z,19.00
2016-09-30T07:01:01.924Z,19.00
2016-09-30T07:02:02.437Z,20.00
2016-09-30T07:03:02.948Z,21.00
2016-09-30T07:04:03.465Z,21.00
2016-09-30T07:05:04.121Z,22.00
2016-09-30T07:06:56.285Z,23.00
2016-09-30T07:08:05.653Z,23.00
2016-09-30T07:09:06.162Z,22.00
2016-09-30T07:10:06.520Z,22.00
2016-09-30T07:11:07.183Z,27.00
2016-09-30T07:12:07.545Z,24.00
2016-09-30T07:13:08.062Z,20.00
2016-09-30T07:14:08.727Z,21.00
2016-09-30T07:15:09.085Z,26.00
2016-09-30T07:16:09.597Z,26.00
2016-09-30T07:17:10.257Z,38.00
2016-09-30T07:18:10.764Z,25.00
2016-09-30T07:19:11.127Z,22.00
2016-09-30T07:20:11.638Z,24.00
2016-09-30T07:21:12.492Z,22.00
2016-09-30T07:22:12.660Z,33.00
2016-09-30T07:23:13.321Z,52.00
2016-09-30T07:24:13.694Z,52.00
2016-09-30T07:25:14.200Z,47.00
2016-09-30T07:26:14.709Z,26.00
2016-09-30T07:27:15.371Z,30.00
2016-09-30T07:28:15.734Z,49.00
2016-09-30T07:29:16.398Z,36.00
2016-09-30T07:30:16.760Z,47.00
2016-09-30T07:31:17.268Z,37.00
2016-09-30T07:32:17.778Z,41.00
2016-09-30T07:33:18.305Z,25.00
2016-09-30T07:34:18.958Z,29.00
2016-09-30T07:35:19.324Z,27.00
2016-09-30T07:36:19.994Z,26.00
2016-09-30T07:37:20.358Z,37.00
2016-09-30T07:38:20.870Z,32.00
2016-09-30T07:39:21.381Z,32.00
2016-09-30T07:40:21.892Z,32.00
2016-09-30T07:41:22.403Z,30.00
2016-09-30T07:42:22.911Z,29.00
2016-09-30T07:43:23.725Z,34.00
2016-09-30T07:44:23.938Z,60.00
2016-09-30T07:45:24.451Z,43.00
2016-09-30T07:46:24.954Z,48.00
2016-09-30T07:47:25.469Z,45.00
2016-09-30T07:48:25.980Z,34.00
2016-09-30T07:49:26.495Z,31.00
2016-09-30T07:50:27.013Z,28.00
2016-09-30T07:51:27.668Z,25.00
2016-09-30T07:52:28.031Z,25.00
2016-09-30T07:53:28.541Z,24.00
2016-09-30T07:54:29.055Z,24.00
2016-09-30T07:55:29.568Z,27.00
2016-09-30T07:56:30.075Z,29.00
2016-09-30T07:57:30.589Z,31.00
2016-09-30T07:58:31.100Z,34.00
2016-09-30T07:59:31.611Z,30.00
2016-09-30T08:00:32.118Z,29.00
2016-09-30T08:01:32.632Z,29.00
2016-09-30T08:02:33.160Z,28.00
2016-09-30T08:03:33.650Z,27.00
2016-09-30T08:04:34.156Z,27.00
2016-09-30T08:05:34.667Z,27.00
2016-09-30T08:06:36.828Z,25.00
2016-09-30T08:07:35.691Z,22.00
2016-09-30T08:08:36.211Z,19.00
2016-09-30T08:09:36.862Z,18.00
2016-09-30T08:10:37.226Z,18.00
2016-09-30T08:11:37.736Z,18.00
2016-09-30T08:12:38.250Z,20.00
2016-09-30T08:13:38.765Z,22.00
2016-09-30T08:14:39.449Z,26.00
2016-09-30T08:15:39.814Z,29.00
2016-09-30T08:16:40.312Z,34.00
2016-09-30T08:17:40.827Z,40.00
2016-09-30T08:18:41.488Z,35.00
2016-09-30T08:19:41.857Z,42.00
2016-09-30T08:20:42.365Z,50.00
2016-09-30T08:21:42.879Z,72.00
2016-09-30T08:22:43.389Z,39.00
2016-09-30T08:23:43.905Z,34.00
2016-09-30T08:24:44.412Z,33.00
2016-09-30T08:25:44.928Z,32.00
2016-09-30T08:26:45.432Z,31.00
2016-09-30T08:27:45.946Z,30.00
2016-09-30T08:28:46.454Z,29.00
2016-09-30T08:29:47.116Z,29.00
2016-09-30T08:30:47.490Z,27.00
2016-09-30T08:31:47.989Z,25.00
2016-09-30T08:32:48.504Z,24.00
2016-09-30T08:33:49.161Z,24.00
2016-09-30T08:34:49.531Z,24.00
2016-09-30T08:35:50.039Z,22.00
2016-09-30T08:36:50.848Z,23.00
2016-09-30T08:37:51.062Z,25.00
2016-09-30T08:38:51.579Z,26.00
2016-09-30T08:39:52.082Z,26.00
2016-09-30T08:40:52.594Z,26.00
2016-09-30T08:41:53.106Z,25.00
2016-09-30T08:42:53.618Z,24.00
2016-09-30T08:43:54.135Z,25.00
2016-09-30T08:44:54.795Z,26.00
2016-09-30T08:45:55.162Z,27.00
2016-09-30T08:46:55.680Z,28.00
2016-09-30T08:47:56.189Z,29.00
2016-09-30T08:48:56.699Z,30.00
2016-09-30T08:49:57.220Z,30.00
2016-09-30T08:50:57.737Z,30.00
2016-09-30T08:51:58.249Z,30.00
2016-09-30T08:52:58.767Z,29.00
2016-09-30T08:53:59.297Z,27.00
2016-09-30T08:54:59.966Z,27.00
2016-09-30T08:56:00.306Z,27.00
2016-09-30T08:57:00.822Z,30.00
2016-09-30T08:58:01.330Z,32.00
2016-09-30T08:59:01.850Z,34.00
2016-09-30T09:00:02.358Z,36.00
2016-09-30T09:01:02.877Z,37.00
2016-09-30T09:02:03.382Z,41.00
2016-09-30T09:03:04.048Z,48.00
2016-09-30T09:04:04.410Z,64.00
2016-09-30T09:05:05.075Z,88.00
2016-09-30T09:06:05.438Z,87.00
2016-09-30T09:07:05.946Z,99.00
2016-09-30T09:08:06.464Z,99.00
2016-09-30T09:09:06.970Z,99.00
2016-09-30T09:10:07.482Z,99.00
2016-09-30T09:11:07.991Z,99.00
2016-09-30T09:12:08.660Z,91.00
2016-09-30T09:13:09.013Z,99.00
2016-09-30T09:14:09.524Z,61.00
2016-09-30T09:15:10.034Z,56.00
2016-09-30T09:16:10.693Z,41.00
2016-09-30T09:17:11.055Z,80.00
2016-09-30T09:18:11.566Z,99.00
2016-09-30T09:19:12.076Z,99.00
2016-09-30T09:20:12.593Z,99.00
2016-09-30T09:21:13.106Z,68.00
2016-09-30T09:22:13.620Z,93.00
2016-09-30T09:23:14.130Z,99.00
2016-09-30T09:24:14.645Z,52.00
2016-09-30T09:25:15.158Z,99.00
2016-09-30T09:26:15.670Z,93.00
2016-09-30T09:27:16.337Z,91.00
2016-09-30T09:28:16.705Z,50.00
2016-09-30T09:29:17.222Z,99.00
2016-09-30T09:30:17.732Z,99.00
2016-09-30T09:31:18.238Z,99.00
2016-09-30T09:32:18.751Z,99.00
2016-09-30T09:33:19.417Z,99.00
2016-09-30T09:34:19.785Z,99.00
2016-09-30T09:35:20.286Z,99.00
2016-09-30T09:36:20.804Z,93.00
2016-09-30T09:37:21.315Z,90.00
2016-09-30T09:38:21.974Z,84.00
2016-09-30T09:39:22.334Z,84.00
2016-09-30T09:40:22.844Z,72.00
2016-09-30T09:41:23.352Z,83.00
2016-09-30T09:42:23.864Z,88.00
2016-09-30T09:43:24.375Z,88.00
2016-09-30T09:44:24.888Z,83.00
2016-09-30T09:45:25.400Z,72.00
2016-09-30T09:46:25.939Z,65.00
2016-09-30T09:47:26.428Z,60.00
2016-09-30T09:48:26.939Z,64.00
2016-09-30T09:49:27.448Z,63.00
2016-09-30T09:50:27.962Z,69.00
2016-09-30T09:51:28.475Z,68.00
2016-09-30T09:52:28.986Z,77.00
2016-09-30T09:53:29.493Z,72.00
2016-09-30T09:54:30.156Z,72.00
2016-09-30T09:55:30.516Z,68.00
2016-09-30T09:56:31.032Z,66.00
2016-09-30T09:57:31.542Z,71.00
2016-09-30T09:58:32.051Z,83.00
2016-09-30T09:59:32.606Z,70.00
2016-09-30T10:00:33.073Z,68.00
2016-09-30T10:01:33.586Z,85.00
2016-09-30T10:02:34.130Z,77.00
2016-09-30T10:03:34.618Z,85.00
2016-09-30T10:04:35.144Z,78.00
2016-09-30T10:05:35.659Z,80.00
2016-09-30T10:06:36.165Z,62.00
2016-09-30T10:07:36.677Z,42.00
2016-09-30T10:08:37.189Z,33.00
2016-09-30T10:09:37.854Z,40.00
2016-09-30T10:10:38.217Z,45.00
2016-09-30T10:11:38.735Z,66.00
2016-09-30T10:12:39.234Z,70.00
2016-09-30T10:13:39.744Z,74.00
2016-09-30T10:14:40.252Z,80.00
2016-09-30T10:15:40.765Z,79.00
2016-09-30T10:16:41.278Z,83.00
2016-09-30T10:17:41.788Z,87.00
2016-09-30T10:18:42.451Z,90.00
2016-09-30T10:19:42.857Z,96.00
2016-09-30T10:20:43.334Z,86.00
2016-09-30T10:21:43.843Z,83.00
2016-09-30T10:22:44.362Z,85.00
2016-09-30T10:23:44.871Z,79.00
2016-09-30T10:24:45.387Z,79.00
2016-09-30T10:25:45.893Z,75.00
2016-09-30T10:26:46.406Z,73.00
2016-09-30T10:27:47.075Z,72.00
2016-09-30T10:28:47.442Z,68.00
2016-09-30T10:29:47.942Z,66.00
2016-09-30T10:30:48.453Z,75.00
2016-09-30T10:31:48.960Z,83.00
2016-09-30T10:32:49.472Z,78.00
2016-09-30T10:33:49.980Z,78.00
2016-09-30T10:34:50.644Z,81.00
2016-09-30T10:35:51.041Z,88.00
2016-09-30T10:36:51.516Z,98.00
2016-09-30T10:37:52.181Z,99.00
2016-09-30T10:38:52.539Z,99.00
2016-09-30T10:39:53.074Z,99.00
2016-09-30T10:40:53.572Z,99.00
2016-09-30T10:41:54.098Z,99.00
2016-09-30T10:42:54.751Z,99.00
2016-09-30T10:43:55.115Z,97.00
2016-09-30T10:44:55.625Z,93.00
2016-09-30T10:45:56.138Z,95.00
2016-09-30T10:46:56.650Z,97.00
2016-09-30T10:47:57.164Z,98.00
2016-09-30T10:48:57.676Z,98.00
2016-09-30T10:49:58.186Z,96.00
2016-09-30T10:50:58.694Z,88.00
2016-09-30T10:51:59.215Z,83.00
2016-09-30T10:52:59.720Z,82.00
2016-09-30T10:54:00.231Z,84.00
2016-09-30T10:55:00.743Z,92.00
2016-09-30T10:56:01.252Z,97.00
2016-09-30T10:57:01.771Z,97.00
2016-09-30T10:58:02.275Z,99.00
2016-09-30T10:59:02.788Z,99.00
2016-09-30T11:00:03.295Z,99.00
2016-09-30T11:01:03.815Z,99.00
2016-09-30T11:02:04.317Z,95.00
2016-09-30T11:03:04.830Z,93.00
2016-09-30T11:04:05.487Z,92.00
2016-09-30T11:05:05.849Z,99.00
2016-09-30T11:06:06.512Z,99.00
2016-09-30T11:07:06.873Z,99.00
2016-09-30T11:08:07.412Z,99.00
2016-09-30T11:09:07.899Z,99.00
2016-09-30T11:10:08.412Z,99.00
2016-09-30T11:11:08.921Z,99.00
2016-09-30T11:12:09.434Z,99.00
2016-09-30T11:13:09.954Z,99.00
2016-09-30T11:14:10.464Z,99.00
2016-09-30T11:15:10.971Z,99.00
2016-09-30T11:16:11.484Z,99.00
2016-09-30T11:17:12.001Z,99.00
2016-09-30T11:18:13.117Z,99.00
2016-09-30T11:19:13.039Z,99.00
2016-09-30T11:20:13.550Z,99.00
2016-09-30T11:21:14.065Z,95.00
2016-09-30T11:22:14.729Z,99.00
2016-09-30T11:23:15.091Z,99.00
2016-09-30T11:24:15.635Z,99.00
2016-09-30T11:25:16.117Z,99.00
2016-09-30T11:26:16.777Z,50.00
2016-09-30T11:27:17.137Z,86.00
2016-09-30T11:28:17.646Z,50.00
2016-09-30T11:29:18.159Z,75.00
2016-09-30T11:30:18.677Z,91.00
2016-09-30T11:31:19.337Z,93.00
2016-09-30T11:32:19.848Z,52.00
2016-09-30T11:33:20.210Z,51.00
2016-09-30T11:34:20.721Z,82.00
2016-09-30T11:35:21.381Z,94.00
2016-09-30T11:36:21.743Z,88.00
2016-09-30T11:37:22.257Z,70.00
2016-09-30T11:38:22.771Z,73.00
2016-09-30T11:39:23.282Z,68.00
2016-09-30T11:40:23.796Z,66.00
2016-09-30T11:41:24.460Z,73.00
2016-09-30T11:42:24.817Z,79.00
2016-09-30T11:43:25.329Z,88.00
2016-09-30T11:44:25.857Z,85.00
2016-09-30T11:45:26.359Z,77.00
2016-09-30T11:46:26.872Z,71.00
2016-09-30T11:47:27.384Z,85.00
2016-09-30T11:48:29.694Z,85.00
2016-09-30T11:49:28.407Z,80.00
2016-09-30T11:50:28.917Z,87.00
2016-09-30T11:51:29.427Z,74.00
2016-09-30T11:52:29.944Z,48.00
2016-09-30T11:53:30.457Z,41.00
2016-09-30T11:54:30.972Z,34.00
2016-09-30T11:55:31.508Z,30.00
2016-09-30T11:56:32.008Z,29.00
2016-09-30T11:57:32.527Z,30.00
2016-09-30T11:58:33.034Z,26.00
2016-09-30T11:59:33.720Z,26.00
2016-09-30T12:00:34.062Z,27.00
2016-09-30T12:01:34.578Z,27.00
2016-09-30T12:02:35.086Z,27.00
2016-09-30T12:04:36.109Z,29.00
2016-09-30T12:05:36.620Z,27.00
2016-09-30T12:06:38.483Z,27.00
2016-09-30T12:07:37.644Z,28.00
2016-09-30T12:08:38.151Z,31.00
2016-09-30T12:09:38.662Z,44.00
2016-09-30T12:10:39.170Z,60.00
2016-09-30T12:11:39.686Z,60.00
2016-09-30T12:12:40.195Z,53.00
2016-09-30T12:13:40.711Z,37.00
2016-09-30T12:14:41.224Z,32.00
2016-09-30T12:15:41.730Z,31.00
2016-09-30T12:16:42.241Z,35.00
2016-09-30T12:17:42.909Z,31.00
2016-09-30T12:18:43.260Z,31.00
2016-09-30T12:19:43.773Z,32.00
2016-09-30T12:20:44.284Z,33.00
2016-09-30T12:21:44.799Z,32.00
2016-09-30T12:22:45.310Z,30.00
2016-09-30T12:23:45.843Z,29.00
2016-09-30T12:24:46.331Z,33.00
2016-09-30T12:25:46.840Z,28.00
2016-09-30T12:26:47.500Z,25.00
2016-09-30T12:27:48.021Z,22.00
2016-09-30T12:28:48.531Z,22.00
2016-09-30T12:29:48.888Z,22.00
2016-09-30T12:30:49.405Z,22.00
2016-09-30T12:31:50.073Z,23.00
2016-09-30T12:32:50.436Z,25.00
2016-09-30T12:33:50.953Z,30.00
2016-09-30T12:34:51.465Z,29.00
2016-09-30T12:35:51.976Z,31.00
2016-09-30T12:36:52.486Z,34.00
2016-09-30T12:37:53.003Z,34.00
2016-09-30T12:38:53.506Z,39.00
2016-09-30T12:39:54.023Z,53.00
2016-09-30T12:40:54.534Z,33.00
2016-09-30T12:41:55.042Z,30.00
2016-09-30T12:42:55.556Z,32.00
2016-09-30T12:43:56.066Z,33.00
2016-09-30T12:44:56.574Z,34.00
2016-09-30T12:45:57.089Z,33.00
2016-09-30T12:46:57.750Z,34.00
2016-09-30T12:47:58.111Z,35.00
2016-09-30T12:48:58.620Z,36.00
2016-09-30T12:49:59.137Z,74.00
2016-09-30T12:50:59.649Z,84.00
2016-09-30T12:52:00.307Z,82.00
2016-09-30T12:53:00.673Z,64.00
2016-09-30T12:54:01.182Z,70.00
2016-09-30T12:55:01.694Z,50.00
2016-09-30T12:56:02.207Z,60.00
2016-09-30T12:57:02.714Z,89.00
2016-09-30T12:58:03.232Z,90.00
2016-09-30T12:59:03.735Z,91.00
2016-09-30T13:00:04.248Z,88.00
2016-09-30T13:01:04.755Z,87.00
2016-09-30T13:02:05.268Z,73.00
2016-09-30T13:03:05.782Z,44.00
2016-09-30T13:04:06.290Z,44.00
2016-09-30T13:05:06.798Z,28.00
2016-09-30T13:06:07.309Z,26.00
2016-09-30T13:07:07.824Z,24.00
2016-09-30T13:08:08.338Z,23.00
2016-09-30T13:09:08.848Z,24.00
2016-09-30T13:10:09.365Z,25.00
2016-09-30T13:11:09.892Z,24.00
2016-09-30T13:12:10.396Z,23.00
2016-09-30T13:13:10.910Z,21.00
2016-09-30T13:14:11.411Z,20.00